Time;durP1;ratioP1;P1;durP2;ratioP2;P2;SDS_P1;SDS_P2;PMS_P1;PMS_P2;Temp;Humidity;BMP_temperature;BMP_pressure;BME280_temperature;BME280_humidity;BME280_pressure;Samples;Min_cycle;Max_cycle;Signal;HPM_P1;HPM_P2
2024/01/14 00:03:00;;;;;;;34.80;16.90;;;3.60;99.90;;;;;;6270458;28;20048;-79
2024/01/14 00:06:02;;;;;;;35.47;16.95;;;3.60;99.90;;;;;;6273262;28;20059;-79
2024/01/14 00:09:05;;;;;;;38.10;17.90;;;3.70;99.90;;;;;;6292697;28;20059;-79
2024/01/14 00:12:06;;;;;;;36.20;16.95;;;3.70;99.90;;;;;;6293328;28;20174;-80
2024/01/14 00:15:08;;;;;;;33.40;16.60;;;3.70;99.90;;;;;;6272562;28;20052;-78
2024/01/14 00:18:11;;;;;;;34.88;16.42;;;3.70;99.90;;;;;;6294524;28;20499;-80
2024/01/14 00:21:13;;;;;;;35.58;16.55;;;3.70;99.90;;;;;;6277860;28;20056;-79
2024/01/14 00:24:14;;;;;;;38.83;17.60;;;3.70;99.90;;;;;;6303830;28;20060;-79
2024/01/14 00:27:17;;;;;;;34.08;16.00;;;3.70;99.90;;;;;;6281279;28;20547;-79
2024/01/14 00:30:19;;;;;;;34.15;16.48;;;3.70;99.90;;;;;;6315167;28;20114;-79
2024/01/14 00:33:21;;;;;;;32.55;15.13;;;3.80;99.90;;;;;;6299561;28;20452;-80
2024/01/14 00:36:23;;;;;;;35.63;16.08;;;3.70;99.90;;;;;;6292663;28;20048;-80
2024/01/14 00:39:24;;;;;;;33.83;16.38;;;3.70;99.90;;;;;;6317838;28;20048;-79
2024/01/14 00:42:26;;;;;;;31.65;15.82;;;3.70;99.90;;;;;;6293779;28;20087;-79
2024/01/14 00:45:28;;;;;;;32.95;15.60;;;3.70;99.90;;;;;;6302787;28;20257;-79
2024/01/14 00:48:29;;;;;;;34.28;16.55;;;3.80;99.90;;;;;;6315457;28;20161;-79
2024/01/14 00:51:31;;;;;;;32.10;15.25;;;3.80;99.90;;;;;;6293431;28;20186;-79
2024/01/14 00:54:33;;;;;;;32.17;15.07;;;3.80;99.90;;;;;;6276356;28;20052;-79
2024/01/14 00:57:35;;;;;;;29.50;14.80;;;3.80;99.90;;;;;;6294632;28;20146;-79
2024/01/14 01:00:36;;;;;;;29.52;14.43;;;3.80;99.90;;;;;;6296611;28;20617;-79
2024/01/14 01:03:38;;;;;;;31.05;15.45;;;3.80;99.90;;;;;;6308008;28;20181;-78
2024/01/14 01:06:40;;;;;;;32.30;15.45;;;3.80;99.90;;;;;;6292857;28;20067;-78
2024/01/14 01:09:42;;;;;;;30.85;15.57;;;3.80;99.90;;;;;;6298025;28;20060;-78
2024/01/14 01:12:43;;;;;;;30.35;14.88;;;3.80;99.90;;;;;;6307202;28;20060;-78
2024/01/14 01:15:45;;;;;;;34.38;16.35;;;3.80;99.90;;;;;;6309323;28;20049;-78
2024/01/14 01:18:47;;;;;;;31.88;15.40;;;3.80;99.90;;;;;;6310030;28;20063;-79
2024/01/14 01:21:49;;;;;;;31.95;15.15;;;3.80;99.90;;;;;;6291847;28;20055;-79
2024/01/14 01:24:50;;;;;;;33.03;15.60;;;3.90;99.90;;;;;;6292204;28;20059;-78
2024/01/14 01:27:52;;;;;;;31.75;14.90;;;3.90;99.90;;;;;;6289416;28;20057;-78
2024/01/14 01:30:54;;;;;;;31.30;15.68;;;3.80;99.90;;;;;;6288247;28;20130;-78
2024/01/14 01:33:56;;;;;;;32.60;15.27;;;3.80;99.90;;;;;;6295046;28;20049;-79
2024/01/14 01:36:58;;;;;;;31.02;14.88;;;3.70;99.90;;;;;;6291531;28;20056;-79
2024/01/14 01:39:59;;;;;;;31.40;15.52;;;3.80;99.90;;;;;;6292049;28;20056;-78
2024/01/14 01:43:01;;;;;;;28.00;14.68;;;3.80;99.90;;;;;;6274288;28;20105;-79
2024/01/14 01:46:02;;;;;;;33.72;15.73;;;3.80;99.90;;;;;;6298775;28;20439;-78
2024/01/14 01:49:04;;;;;;;34.80;16.30;;;3.80;99.90;;;;;;6274574;28;20420;-78
2024/01/14 01:52:06;;;;;;;31.27;15.02;;;3.80;99.90;;;;;;6317010;28;20048;-79
2024/01/14 01:55:07;;;;;;;34.22;15.50;;;3.80;99.90;;;;;;6274794;28;20044;-78
2024/01/14 01:58:09;;;;;;;34.20;16.25;;;3.80;99.90;;;;;;6297621;28;20060;-78
2024/01/14 02:01:11;;;;;;;34.70;15.45;;;3.80;99.90;;;;;;6291188;28;20059;-78
2024/01/14 02:04:12;;;;;;;30.02;14.98;;;3.80;99.90;;;;;;6288659;28;20114;-79
2024/01/14 02:07:14;;;;;;;35.33;16.92;;;3.80;99.90;;;;;;6273653;28;20060;-80
2024/01/14 02:10:15;;;;;;;32.92;16.08;;;3.70;99.90;;;;;;6316445;28;20052;-79
2024/01/14 02:13:17;;;;;;;33.17;16.23;;;3.70;99.90;;;;;;6294489;28;20068;-79
2024/01/14 02:16:18;;;;;;;33.17;16.80;;;3.70;99.90;;;;;;6313188;28;20048;-78
2024/01/14 02:19:22;;;;;;;36.15;17.00;;;3.70;99.90;;;;;;6278076;28;20063;-79
2024/01/14 02:22:24;;;;;;;33.45;15.63;;;3.70;99.90;;;;;;6312140;28;20048;-78
2024/01/14 02:25:26;;;;;;;34.53;16.90;;;3.70;99.90;;;;;;6296388;28;20053;-78
2024/01/14 02:28:27;;;;;;;39.25;18.38;;;3.80;99.90;;;;;;6298032;28;20075;-77
2024/01/14 02:31:29;;;;;;;34.75;16.90;;;3.80;99.90;;;;;;6293648;28;20044;-78
2024/01/14 02:34:32;;;;;;;36.63;17.80;;;3.70;99.90;;;;;;6285593;28;20044;-78
2024/01/14 02:37:34;;;;;;;34.47;16.88;;;3.70;99.90;;;;;;6309529;28;20537;-79
2024/01/14 02:40:36;;;;;;;33.25;16.90;;;3.70;99.90;;;;;;6298877;28;20053;-78
2024/01/14 02:43:37;;;;;;;36.42;16.92;;;3.80;99.90;;;;;;6308898;28;20055;-78
2024/01/14 02:46:39;;;;;;;36.10;16.90;;;3.70;99.90;;;;;;6303550;28;20117;-78
2024/01/14 02:49:41;;;;;;;39.63;17.98;;;3.80;99.90;;;;;;6278540;28;20048;-79
2024/01/14 02:52:43;;;;;;;35.22;16.10;;;3.80;99.90;;;;;;6296392;28;20060;-79
2024/01/14 02:55:44;;;;;;;37.72;18.48;;;3.70;99.90;;;;;;6293958;28;20048;-78
2024/01/14 02:58:46;;;;;;;36.30;17.33;;;3.70;99.90;;;;;;6307791;28;20048;-79
2024/01/14 03:01:48;;;;;;;39.20;18.27;;;3.70;99.90;;;;;;6277972;28;20072;-79
2024/01/14 03:04:49;;;;;;;39.65;17.55;;;3.70;99.90;;;;;;6389678;22;20074;-79
2024/01/14 03:07:51;;;;;;;38.40;17.60;;;3.70;99.90;;;;;;6294045;28;20060;-80
2024/01/14 03:10:53;;;;;;;40.90;18.10;;;3.70;99.90;;;;;;6309878;28;20060;-79
2024/01/14 03:13:54;;;;;;;37.75;17.58;;;3.70;99.90;;;;;;6305359;28;20534;-79
2024/01/14 03:16:56;;;;;;;39.55;18.42;;;3.70;99.90;;;;;;6301698;28;20054;-79
2024/01/14 03:19:57;;;;;;;39.22;18.27;;;3.60;99.90;;;;;;6319895;28;20052;-79
2024/01/14 03:22:59;;;;;;;39.08;17.35;;;3.60;99.90;;;;;;6319888;28;20075;-79
2024/01/14 03:26:01;;;;;;;39.35;17.90;;;3.70;99.90;;;;;;6319275;28;20060;-79
2024/01/14 03:29:02;;;;;;;40.13;17.38;;;3.70;99.90;;;;;;6300012;28;20166;-78
2024/01/14 03:32:04;;;;;;;38.78;17.75;;;3.70;99.90;;;;;;6317471;28;20067;-79
2024/01/14 03:35:06;;;;;;;35.97;17.02;;;3.70;99.90;;;;;;6319146;28;20086;-79
2024/01/14 03:38:07;;;;;;;39.25;17.75;;;3.70;99.90;;;;;;6300769;28;20055;-79
2024/01/14 03:41:09;;;;;;;41.13;17.63;;;3.70;99.90;;;;;;6319148;28;20063;-79
2024/01/14 03:44:11;;;;;;;42.90;18.92;;;3.70;99.90;;;;;;6316842;28;20059;-79
2024/01/14 03:47:12;;;;;;;42.00;18.17;;;3.70;99.90;;;;;;6319649;28;20060;-78
2024/01/14 03:50:14;;;;;;;43.92;18.85;;;3.70;99.90;;;;;;6320130;28;20055;-79
2024/01/14 03:53:16;;;;;;;40.72;18.20;;;3.70;99.90;;;;;;6319508;28;20051;-79
2024/01/14 03:56:17;;;;;;;38.13;17.95;;;3.70;99.90;;;;;;6318821;28;20540;-80
2024/01/14 03:59:19;;;;;;;40.25;17.67;;;3.80;99.90;;;;;;6314491;28;20437;-80
2024/01/14 04:02:21;;;;;;;42.22;17.20;;;3.70;99.90;;;;;;6319289;28;20059;-78
2024/01/14 04:05:23;;;;;;;40.50;17.20;;;3.70;99.90;;;;;;6319077;28;20056;-79
2024/01/14 04:08:25;;;;;;;39.45;17.40;;;3.60;99.90;;;;;;6319720;28;20052;-79
2024/01/14 04:11:26;;;;;;;37.35;17.00;;;3.70;99.90;;;;;;6319041;28;20050;-78
2024/01/14 04:14:28;;;;;;;39.38;17.70;;;3.70;99.90;;;;;;6316133;28;20060;-79
2024/01/14 04:17:30;;;;;;;37.88;17.00;;;3.70;99.90;;;;;;6319305;28;20465;-78
2024/01/14 04:20:32;;;;;;;38.55;16.80;;;3.70;99.90;;;;;;6299762;28;20049;-78
2024/01/14 04:23:33;;;;;;;41.45;17.40;;;3.70;99.90;;;;;;6318386;28;20521;-79
2024/01/14 04:26:35;;;;;;;41.17;17.45;;;3.70;99.90;;;;;;6318291;28;20056;-79
2024/01/14 04:29:36;;;;;;;36.80;17.05;;;3.60;99.90;;;;;;6316408;28;20124;-79
2024/01/14 04:32:38;;;;;;;40.35;16.25;;;3.60;99.90;;;;;;6299377;28;20518;-78
2024/01/14 04:35:40;;;;;;;39.55;17.20;;;3.70;99.90;;;;;;6299664;28;20059;-79
2024/01/14 04:38:42;;;;;;;39.22;16.55;;;3.60;99.90;;;;;;6314076;28;20059;-79
2024/01/14 04:41:44;;;;;;;41.35;16.65;;;3.70;99.90;;;;;;6318437;28;20052;-78
2024/01/14 04:44:45;;;;;;;38.70;16.95;;;3.60;99.90;;;;;;6314503;28;20525;-79
2024/01/14 04:47:47;;;;;;;39.47;16.92;;;3.60;99.90;;;;;;6318145;28;20052;-78
2024/01/14 04:50:48;;;;;;;39.03;17.05;;;3.60;99.90;;;;;;6318269;28;20502;-78
2024/01/14 04:53:50;;;;;;;37.55;17.17;;;3.60;99.90;;;;;;6318275;28;20048;-78
2024/01/14 04:56:52;;;;;;;38.83;16.30;;;3.60;99.90;;;;;;6316255;28;20055;-78
2024/01/14 04:59:54;;;;;;;39.35;16.80;;;3.60;99.90;;;;;;6301265;28;20048;-79
2024/01/14 05:02:56;;;;;;;38.33;16.90;;;3.60;99.90;;;;;;6317194;28;20059;-79
2024/01/14 05:05:58;;;;;;;35.45;15.32;;;3.50;99.90;;;;;;6294549;28;20131;-79
2024/01/14 05:08:59;;;;;;;36.97;15.75;;;3.60;99.90;;;;;;6317378;28;20409;-79
2024/01/14 05:12:01;;;;;;;38.05;15.32;;;3.60;99.90;;;;;;6317994;28;20422;-79
2024/01/14 05:15:03;;;;;;;42.20;16.58;;;3.60;99.90;;;;;;6317371;28;20047;-79
2024/01/14 05:18:05;;;;;;;35.42;14.80;;;3.50;99.90;;;;;;6318271;28;20427;-78
2024/01/14 05:21:07;;;;;;;42.15;16.90;;;3.50;99.90;;;;;;6318502;28;20152;-78
2024/01/14 05:24:09;;;;;;;37.45;15.35;;;3.50;99.90;;;;;;6317606;28;20052;-78
2024/01/14 05:27:11;;;;;;;38.78;15.77;;;3.50;99.90;;;;;;6317546;28;20051;-79
2024/01/14 05:30:13;;;;;;;35.90;15.40;;;3.60;99.90;;;;;;6312021;28;20684;-79
2024/01/14 05:33:15;;;;;;;39.95;15.80;;;3.50;99.90;;;;;;6299727;28;20055;-78
2024/01/14 05:36:17;;;;;;;40.50;16.35;;;3.50;99.90;;;;;;6312723;28;20044;-78
2024/01/14 05:39:18;;;;;;;38.85;16.38;;;3.50;99.90;;;;;;6317570;28;20063;-78
2024/01/14 05:42:20;;;;;;;35.17;15.30;;;3.50;99.90;;;;;;6317667;28;20056;-79
2024/01/14 05:45:22;;;;;;;34.53;14.73;;;3.50;99.90;;;;;;6311830;28;20055;-78
2024/01/14 05:48:23;;;;;;;39.28;16.45;;;3.50;99.90;;;;;;6317631;28;20044;-79
2024/01/14 05:51:25;;;;;;;35.50;15.32;;;3.50;99.90;;;;;;6299598;28;20158;-79
2024/01/14 05:54:27;;;;;;;41.28;16.13;;;3.50;99.90;;;;;;6317910;28;20048;-79
2024/01/14 05:57:28;;;;;;;38.40;15.80;;;3.50;99.90;;;;;;6321223;28;20189;-79
2024/01/14 06:00:30;;;;;;;38.38;16.25;;;3.50;99.90;;;;;;6317771;28;20514;-79
2024/01/14 06:03:32;;;;;;;40.58;16.52;;;3.60;99.90;;;;;;6321018;28;20059;-78
2024/01/14 06:06:34;;;;;;;42.90;16.52;;;3.50;99.90;;;;;;6320952;28;20063;-78
2024/01/14 06:09:35;;;;;;;36.90;16.15;;;3.60;99.90;;;;;;6320932;28;20052;-78
2024/01/14 06:12:37;;;;;;;39.45;16.20;;;3.60;99.90;;;;;;6303802;28;20518;-79
2024/01/14 06:15:39;;;;;;;41.65;16.27;;;3.70;99.90;;;;;;6315192;28;20052;-78
2024/01/14 06:18:41;;;;;;;38.08;16.23;;;3.60;99.90;;;;;;6320683;28;20066;-79
2024/01/14 06:21:43;;;;;;;40.40;16.90;;;3.60;99.90;;;;;;6320542;28;20055;-79
2024/01/14 06:24:44;;;;;;;37.17;16.52;;;3.60;99.90;;;;;;6320294;28;20755;-79
2024/01/14 06:27:46;;;;;;;39.65;16.27;;;3.60;99.90;;;;;;6320885;28;20048;-79
2024/01/14 06:30:48;;;;;;;37.28;16.45;;;3.60;99.90;;;;;;6317439;28;20051;-78
2024/01/14 06:33:50;;;;;;;41.55;17.15;;;3.60;99.90;;;;;;6303218;28;20048;-79
2024/01/14 06:36:52;;;;;;;38.65;16.30;;;3.60;99.90;;;;;;6318095;28;20047;-78
2024/01/14 06:39:53;;;;;;;41.15;16.83;;;3.60;99.90;;;;;;6320416;28;20054;-78
2024/01/14 06:42:55;;;;;;;41.90;15.52;;;3.60;99.90;;;;;;6320443;28;20053;-79
2024/01/14 06:45:56;;;;;;;41.03;16.65;;;3.60;99.90;;;;;;6317233;28;20040;-78
2024/01/14 06:48:58;;;;;;;43.03;16.60;;;3.60;99.90;;;;;;6320509;28;20440;-78
2024/01/14 06:52:00;;;;;;;39.05;16.52;;;3.50;99.90;;;;;;6320551;28;20060;-79
2024/01/14 06:55:04;;;;;;;37.75;16.33;;;3.60;99.90;;;;;;6320698;28;20051;-79
2024/01/14 06:58:05;;;;;;;40.80;16.50;;;3.60;99.90;;;;;;6320246;28;20511;-79
2024/01/14 07:01:07;;;;;;;40.25;16.90;;;3.60;99.90;;;;;;6318033;28;20047;-80
2024/01/14 07:04:14;;;;;;;41.63;17.27;;;3.60;99.90;;;;;;6279786;28;20052;-79
2024/01/14 07:07:16;;;;;;;39.80;16.80;;;3.60;99.90;;;;;;6319931;28;20127;-79
2024/01/14 07:10:18;;;;;;;42.45;16.88;;;3.60;99.90;;;;;;6320354;28;20059;-79
2024/01/14 07:13:19;;;;;;;42.63;18.05;;;3.60;99.90;;;;;;6320161;28;20056;-80
2024/01/14 07:16:21;;;;;;;39.17;15.88;;;3.60;99.90;;;;;;6316878;28;20048;-78
2024/01/14 07:19:22;;;;;;;37.92;16.05;;;3.60;99.90;;;;;;6295658;28;20082;-79
2024/01/14 07:22:24;;;;;;;40.22;16.58;;;3.50;99.90;;;;;;6319486;28;20536;-78
2024/01/14 07:25:26;;;;;;;41.10;16.38;;;3.60;99.90;;;;;;6319806;28;20048;-79
2024/01/14 07:28:27;;;;;;;36.38;15.75;;;3.50;99.90;;;;;;6319882;28;20047;-79
2024/01/14 07:31:30;;;;;;;45.75;17.42;;;3.60;99.90;;;;;;6296768;28;20529;-79
2024/01/14 07:34:32;;;;;;;42.92;16.83;;;3.50;99.90;;;;;;6310289;28;20074;-79
2024/01/14 07:37:34;;;;;;;41.65;17.25;;;3.60;99.90;;;;;;6317925;28;20644;-79
2024/01/14 07:40:36;;;;;;;41.22;16.83;;;3.60;99.90;;;;;;6319835;28;20501;-79
2024/01/14 07:43:38;;;;;;;41.28;16.98;;;3.60;99.90;;;;;;6316781;28;20059;-79
2024/01/14 07:46:39;;;;;;;41.58;16.58;;;3.50;99.90;;;;;;6320278;28;20123;-79
2024/01/14 07:49:41;;;;;;;38.83;16.15;;;3.50;99.90;;;;;;6319897;28;20052;-80
2024/01/14 07:52:43;;;;;;;41.95;16.77;;;3.50;99.90;;;;;;6319572;28;20055;-79
2024/01/14 07:55:44;;;;;;;38.25;15.73;;;3.50;99.90;;;;;;6319292;28;20555;-79
2024/01/14 07:58:46;;;;;;;42.35;16.88;;;3.50;99.90;;;;;;6313490;28;20494;-79
2024/01/14 08:01:47;;;;;;;42.13;17.42;;;3.60;99.90;;;;;;6318818;28;20117;-79
2024/01/14 08:04:49;;;;;;;38.38;15.80;;;3.60;99.90;;;;;;6317812;28;20051;-79
2024/01/14 08:07:50;;;;;;;39.00;16.60;;;3.50;99.90;;;;;;6318750;28;20059;-79
2024/01/14 08:10:52;;;;;;;44.38;17.20;;;3.50;99.90;;;;;;6319211;28;20047;-79
2024/01/14 08:13:54;;;;;;;41.65;15.95;;;3.60;99.90;;;;;;6310296;28;20117;-80
2024/01/14 08:16:56;;;;;;;39.47;15.77;;;3.60;99.90;;;;;;6319086;28;20052;-80
2024/01/14 08:19:58;;;;;;;43.10;17.27;;;3.60;99.90;;;;;;6317880;28;20499;-79
2024/01/14 08:23:00;;;;;;;37.72;15.98;;;3.60;99.90;;;;;;6318053;28;20138;-78
2024/01/14 08:26:01;;;;;;;41.55;15.75;;;3.50;99.90;;;;;;6318386;28;20086;-79
2024/01/14 08:29:03;;;;;;;39.15;16.10;;;3.60;99.90;;;;;;6317922;28;20048;-78
2024/01/14 08:32:18;;;;;;;35.63;15.48;;;3.70;99.90;;;;;;6293612;28;20056;-79
2024/01/14 08:35:23;;;;;;;36.40;14.90;;;3.70;99.90;;;;;;6317737;28;20579;-79
2024/01/14 08:38:25;;;;;;;35.45;15.50;;;3.70;99.90;;;;;;6318693;28;20059;-79
2024/01/14 08:41:27;;;;;;;39.78;15.57;;;3.70;99.90;;;;;;6317625;28;20060;-79
2024/01/14 08:44:29;;;;;;;39.85;16.17;;;3.70;99.90;;;;;;6315400;28;20043;-81
2024/01/14 08:47:31;;;;;;;32.88;15.05;;;3.80;99.90;;;;;;6314762;28;20055;-81
2024/01/14 08:50:32;;;;;;;33.80;14.60;;;3.90;99.90;;;;;;6318134;28;20316;-80
2024/01/14 08:53:34;;;;;;;37.00;15.18;;;3.80;99.90;;;;;;6318018;28;20087;-80
2024/01/14 08:56:36;;;;;;;33.15;14.43;;;3.90;99.90;;;;;;6317517;28;20052;-79
2024/01/14 08:59:37;;;;;;;35.97;15.20;;;3.90;99.90;;;;;;6307569;28;20056;-81
2024/01/14 09:02:39;;;;;;;35.40;15.20;;;4.00;99.90;;;;;;6302463;28;20510;-82
2024/01/14 09:05:41;;;;;;;36.15;14.90;;;4.00;99.90;;;;;;6317736;28;20060;-81
2024/01/14 09:08:42;;;;;;;35.10;15.50;;;4.00;99.90;;;;;;6317661;28;20048;-81
2024/01/14 09:11:45;;;;;;;32.80;14.15;;;4.10;99.90;;;;;;6309272;28;20048;-81
2024/01/14 09:14:47;;;;;;;33.80;14.65;;;4.10;99.90;;;;;;6316879;28;20062;-81
2024/01/14 09:17:49;;;;;;;31.33;13.40;;;4.20;99.90;;;;;;6317855;28;20605;-81
2024/01/14 09:20:50;;;;;;;29.42;13.77;;;4.20;99.90;;;;;;6318141;28;20414;-82
2024/01/14 09:23:52;;;;;;;29.98;13.15;;;4.30;99.90;;;;;;6318015;28;20079;-81
2024/01/14 09:26:54;;;;;;;29.63;12.98;;;4.30;99.90;;;;;;6317535;28;20048;-82
2024/01/14 09:29:55;;;;;;;28.60;13.68;;;4.40;99.90;;;;;;6304359;28;20048;-83
2024/01/14 09:32:57;;;;;;;30.15;12.85;;;4.40;99.90;;;;;;6320784;28;20189;-83
2024/01/14 09:36:00;;;;;;;27.48;12.70;;;4.50;99.90;;;;;;6315912;28;20048;-83
2024/01/14 09:39:01;;;;;;;29.63;12.90;;;4.50;99.90;;;;;;6280096;28;20088;-81
2024/01/14 09:42:04;;;;;;;31.73;13.52;;;4.50;99.90;;;;;;6303678;28;20059;-82
2024/01/14 09:45:05;;;;;;;29.48;12.75;;;4.60;99.90;;;;;;6319671;28;20052;-82
2024/01/14 09:48:08;;;;;;;28.92;13.38;;;4.60;99.90;;;;;;6306376;28;20055;-83
2024/01/14 09:51:10;;;;;;;28.65;12.95;;;4.70;99.90;;;;;;6323785;28;20396;-86
2024/01/14 09:54:12;;;;;;;28.50;13.38;;;4.80;99.90;;;;;;6323534;28;20055;-83
2024/01/14 09:57:14;;;;;;;27.58;12.88;;;4.80;99.90;;;;;;6322940;28;20070;-83
2024/01/14 10:00:16;;;;;;;27.88;13.02;;;4.80;99.90;;;;;;6303685;28;20415;-82
2024/01/14 10:03:17;;;;;;;28.38;12.38;;;4.80;99.90;;;;;;6323203;28;20054;-83
2024/01/14 10:06:19;;;;;;;26.38;12.52;;;4.90;99.90;;;;;;6321516;28;20097;-84
2024/01/14 10:09:23;;;;;;;24.00;10.95;;;5.00;99.90;;;;;;6321487;28;20093;-83
2024/01/14 10:12:26;;;;;;;24.30;11.27;;;5.10;99.90;;;;;;6319266;28;20222;-84
2024/01/14 10:15:28;;;;;;;28.58;10.98;;;5.10;99.40;;;;;;6299537;28;20052;-84
2024/01/14 10:18:29;;;;;;;28.27;11.25;;;5.20;99.00;;;;;;6323936;28;20053;-85
2024/01/14 10:21:31;;;;;;;26.25;11.30;;;5.20;99.00;;;;;;6314513;28;20560;-85
2024/01/14 10:24:35;;;;;;;23.80;11.38;;;5.30;97.80;;;;;;6322415;28;20487;-84
2024/01/14 10:27:37;;;;;;;25.00;11.40;;;5.30;97.00;;;;;;6314917;22;20507;-86
2024/01/14 10:30:39;;;;;;;25.25;11.18;;;5.30;97.60;;;;;;6303400;28;20404;-86
2024/01/14 10:33:41;;;;;;;25.50;12.15;;;5.30;98.10;;;;;;6305682;28;20502;-84
2024/01/14 10:36:43;;;;;;;26.23;11.13;;;5.40;96.90;;;;;;6305861;28;20510;-85
2024/01/14 10:39:44;;;;;;;25.75;10.98;;;5.50;95.80;;;;;;6307792;28;20048;-87
2024/01/14 10:42:46;;;;;;;23.60;10.90;;;5.50;95.90;;;;;;6304929;28;20056;-86
2024/01/14 10:45:48;;;;;;;25.77;11.93;;;5.50;96.10;;;;;;6291580;28;20552;-84
2024/01/14 10:48:50;;;;;;;25.83;11.13;;;5.60;96.00;;;;;;6309309;28;20055;-84
2024/01/14 10:51:51;;;;;;;25.65;11.95;;;5.60;94.60;;;;;;6300893;28;20063;-86
2024/01/14 10:54:53;;;;;;;25.00;12.13;;;5.70;95.40;;;;;;6305753;28;20044;-84
2024/01/14 10:57:55;;;;;;;22.15;10.98;;;5.70;94.10;;;;;;6309722;28;20048;-85
2024/01/14 11:00:57;;;;;;;24.23;12.45;;;5.70;94.50;;;;;;6303335;28;20060;-86
2024/01/14 11:03:59;;;;;;;26.08;12.68;;;5.70;93.50;;;;;;6303475;28;20155;-87
2024/01/14 11:07:01;;;;;;;27.85;12.93;;;5.80;94.10;;;;;;6293286;28;20071;-91
2024/01/14 11:10:03;;;;;;;25.45;11.40;;;5.80;93.30;;;;;;6310922;28;20044;-89
2024/01/14 11:13:04;;;;;;;23.08;11.27;;;5.80;92.80;;;;;;6303122;28;20055;-88
2024/01/14 11:16:06;;;;;;;27.30;11.57;;;5.70;91.70;;;;;;6300658;28;20055;-87
2024/01/14 11:19:08;;;;;;;22.88;11.30;;;5.80;91.80;;;;;;6304181;28;20411;-87
2024/01/14 11:22:29;;;;;;;22.65;11.13;;;5.80;91.50;;;;;;6293574;28;20139;-87
2024/01/14 11:25:44;;;;;;;23.65;11.48;;;6.00;91.30;;;;;;6298018;28;20064;-88
2024/01/14 11:28:46;;;;;;;22.55;11.32;;;6.00;91.30;;;;;;6291417;28;20052;-88
2024/01/14 11:31:48;;;;;;;24.55;11.68;;;6.10;90.50;;;;;;6300589;28;20076;-88
2024/01/14 11:34:50;;;;;;;23.92;12.00;;;6.20;90.40;;;;;;6298177;28;20114;-86
